Time;durP1;ratioP1;P1;durP2;ratioP2;P2;SDS_P1;SDS_P2;PMS_P1;PMS_P2;Temp;Humidity;BMP_temperature;BMP_pressure;BME280_temperature;BME280_humidity;BME280_pressure;Samples;Min_cycle;Max_cycle;Signal;HPM_P1;HPM_P2
2021/10/31 00:01:15;;;;;;;53.50;30.82;;;;;;;3.52;87.91;100776.54;1704961;83;21015;-69
2021/10/31 00:03:41;;;;;;;45.95;28.52;;;;;;;3.50;87.96;100778.67;1678061;83;21139;-69
2021/10/31 00:06:08;;;;;;;49.10;29.75;;;;;;;3.46;87.83;100776.16;1718903;81;21081;-70
2021/10/31 00:08:35;;;;;;;48.55;30.20;;;;;;;3.44;87.87;100772.00;1726468;82;21118;-69
2021/10/31 00:11:03;;;;;;;48.40;30.92;;;;;;;3.39;87.95;100771.36;1703114;82;21047;-69
2021/10/31 00:13:29;;;;;;;52.55;31.50;;;;;;;3.38;87.98;100770.53;1700329;82;21520;-71
2021/10/31 00:15:59;;;;;;;51.40;31.35;;;;;;;3.38;87.95;100769.69;1731418;82;20996;-69
2021/10/31 00:18:25;;;;;;;52.50;32.08;;;;;;;3.35;87.91;100762.84;1701681;82;21968;-71
2021/10/31 00:20:52;;;;;;;51.53;30.92;;;;;;;3.35;88.00;100762.84;1731746;82;21542;-71
2021/10/31 00:23:21;;;;;;;47.55;30.00;;;;;;;3.32;87.81;100768.77;1732074;82;21008;-69
2021/10/31 00:26:00;;;;;;;49.35;29.82;;;;;;;3.29;87.83;100761.89;1717371;82;21029;-69
2021/10/31 00:28:26;;;;;;;46.13;29.60;;;;;;;3.31;87.96;100757.56;1731804;82;21083;-69
2021/10/31 00:30:52;;;;;;;50.00;31.17;;;;;;;3.30;87.92;100754.56;1723703;82;21520;-71
2021/10/31 00:33:23;;;;;;;50.30;31.70;;;;;;;3.32;88.04;100757.04;1720356;82;21107;-70
2021/10/31 00:35:51;;;;;;;43.75;28.32;;;;;;;3.31;87.96;100746.66;1726921;82;21035;-71
2021/10/31 00:38:18;;;;;;;48.50;30.88;;;;;;;3.29;87.86;100748.83;1730995;82;21031;-69
2021/10/31 00:40:45;;;;;;;46.30;29.82;;;;;;;3.25;87.85;100743.55;1730551;82;21595;-71
2021/10/31 00:43:11;;;;;;;50.25;30.48;;;;;;;3.21;87.81;100742.39;1705522;82;21087;-69
2021/10/31 00:45:39;;;;;;;52.70;31.87;;;;;;;3.19;87.87;100745.89;1730765;82;21048;-69
2021/10/31 00:48:09;;;;;;;45.90;30.35;;;;;;;3.20;87.99;100743.45;1722465;82;21029;-69
2021/10/31 00:50:36;;;;;;;51.58;31.55;;;;;;;3.19;88.09;100751.34;1702864;82;21061;-69
2021/10/31 00:53:03;;;;;;;52.40;34.45;;;;;;;3.20;88.18;100738.00;1690656;84;21303;-70
2021/10/31 00:55:30;;;;;;;56.75;31.37;;;;;;;3.21;88.29;100735.59;1677554;85;21572;-69
2021/10/31 00:57:59;;;;;;;47.23;30.97;;;;;;;3.19;88.35;100739.08;1681747;84;21554;-71
2021/10/31 01:00:28;;;;;;;56.63;32.17;;;;;;;3.21;88.37;100735.03;1685470;84;21079;-69
2021/10/31 01:02:55;;;;;;;48.58;31.00;;;;;;;3.23;88.41;100727.45;1687310;84;21024;-69
2021/10/31 01:05:26;;;;;;;56.18;32.58;;;;;;;3.29;88.45;100728.39;1704707;83;21083;-69
2021/10/31 01:08:36;;;;;;;57.08;33.60;;;;;;;3.31;88.32;100723.51;1672982;84;21048;-70
2021/10/31 01:11:39;;;;;;;53.50;33.05;;;;;;;3.35;88.25;100727.94;1683521;83;21047;-69
2021/10/31 01:14:49;;;;;;;53.80;32.53;;;;;;;3.32;88.21;100722.98;1709259;82;20986;-72
2021/10/31 01:17:40;;;;;;;52.33;31.50;;;;;;;3.25;88.05;100727.20;1694035;83;20999;-70
2021/10/31 01:20:25;;;;;;;53.00;32.35;;;;;;;3.20;88.10;100722.48;1713226;83;21036;-70
2021/10/31 01:23:21;;;;;;;55.90;32.08;;;;;;;3.21;88.17;100726.05;1703498;83;21338;-70
2021/10/31 01:26:25;;;;;;;54.40;32.15;;;;;;;3.20;88.14;100735.27;1686164;84;21046;-71
2021/10/31 01:28:58;;;;;;;;;;;;;;;3.20;88.16;100730.66;1713411;83;21076;-69
2021/10/31 01:31:48;;;;;;;55.35;30.72;;;;;;;3.22;88.29;100720.88;1710060;82;20230;-69
2021/10/31 01:34:36;;;;;;;49.90;31.70;;;;;;;3.28;88.55;100720.75;1709270;83;21012;-71
2021/10/31 01:37:36;;;;;;;54.77;32.53;;;;;;;3.27;88.34;100715.02;1688669;84;21162;-69
2021/10/31 01:40:12;;;;;;;55.88;32.98;;;;;;;3.25;88.16;100707.61;1687349;84;21596;-70
2021/10/31 01:43:29;;;;;;;56.55;34.48;;;;;;;3.19;88.03;100711.84;1690834;84;21059;-69
2021/10/31 01:46:07;;;;;;;57.03;32.35;;;;;;;3.14;88.00;100707.92;1690067;84;20999;-69
2021/10/31 01:49:07;;;;;;;54.15;32.80;;;;;;;3.14;88.07;100712.01;1687530;84;21054;-70
2021/10/31 01:51:48;;;;;;;57.53;32.13;;;;;;;3.17;88.11;100709.36;1661747;84;21756;-70
2021/10/31 01:54:20;;;;;;;52.75;30.85;;;;;;;3.18;88.06;100702.83;1690481;84;21094;-71
2021/10/31 01:56:52;;;;;;;52.98;31.95;;;;;;;3.20;88.06;100708.03;1686665;84;21032;-70
2021/10/31 01:59:30;;;;;;;63.00;30.65;;;;;;;3.21;88.06;100702.89;1661070;84;21056;-71
2021/10/31 02:01:57;;;;;;;51.02;31.25;;;;;;;3.19;87.96;100699.02;1690440;84;21555;-70
2021/10/31 02:04:24;;;;;;;46.80;28.10;;;;;;;3.15;87.86;100705.52;1689139;84;21168;-70
2021/10/31 02:06:55;;;;;;;47.75;29.27;;;;;;;3.14;87.92;100693.47;1703981;81;21080;-70
2021/10/31 02:09:26;;;;;;;53.05;30.35;;;;;;;3.12;87.75;100696.44;1709923;83;21122;-69
2021/10/31 02:11:55;;;;;;;54.15;30.15;;;;;;;3.10;87.84;100697.23;1708903;83;21048;-69
2021/10/31 02:14:21;;;;;;;49.93;27.40;;;;;;;3.12;87.87;100694.27;1710771;83;21071;-69
2021/10/31 02:16:48;;;;;;;58.90;30.55;;;;;;;3.09;87.78;100691.48;1719541;83;21490;-69
2021/10/31 02:19:27;;;;;;;53.05;31.20;;;;;;;3.10;87.84;100697.76;1690515;83;21578;-69
2021/10/31 02:22:00;;;;;;;54.98;31.02;;;;;;;3.11;87.82;100698.04;1715380;83;21043;-70
2021/10/31 02:24:27;;;;;;;53.92;30.10;;;;;;;3.10;87.65;100697.23;1714788;83;21497;-68
2021/10/31 02:26:56;;;;;;;60.03;31.60;;;;;;;3.07;87.57;100690.88;1712211;83;21099;-69
2021/10/31 02:29:25;;;;;;;51.65;29.82;;;;;;;3.02;87.55;100692.97;1712852;82;21615;-69
2021/10/31 02:31:53;;;;;;;52.33;29.50;;;;;;;3.02;87.49;100695.70;1715018;82;21060;-70
2021/10/31 02:34:22;;;;;;;51.15;28.77;;;;;;;3.01;87.52;100689.97;1695714;83;21555;-70
2021/10/31 02:36:52;;;;;;;47.80;28.00;;;;;;;3.02;87.51;100691.61;1712051;83;21090;-70
2021/10/31 02:39:20;;;;;;;46.37;28.02;;;;;;;3.02;87.42;100689.45;1713854;82;21461;-69
2021/10/31 02:41:49;;;;;;;44.73;27.55;;;;;;;3.01;87.40;100686.41;1693349;83;21085;-70
2021/10/31 02:44:15;;;;;;;48.78;29.35;;;;;;;2.99;87.40;100692.62;1712229;83;21016;-69
2021/10/31 02:46:42;;;;;;;53.45;30.80;;;;;;;2.98;87.34;100686.89;1696566;83;21555;-70
2021/10/31 02:49:08;;;;;;;51.18;27.52;;;;;;;2.94;87.22;100690.63;1714794;83;21028;-69
2021/10/31 02:52:04;;;;;;;55.60;30.77;;;;;;;2.90;87.17;100691.64;1693363;83;21500;-70
2021/10/31 02:54:59;;;;;;;53.42;29.05;;;;;;;2.89;87.23;100689.16;1715738;83;21087;-70
2021/10/31 02:57:49;;;;;;;41.80;26.50;;;;;;;2.88;87.31;100694.32;1715443;83;21453;-69
2021/10/31 03:00:17;;;;;;;48.83;27.60;;;;;;;2.90;87.42;100689.47;1672251;83;21053;-69
2021/10/31 03:02:45;;;;;;;48.95;28.42;;;;;;;2.87;87.38;100686.67;1713680;83;21520;-69
2021/10/31 03:05:13;;;;;;;45.48;26.68;;;;;;;2.87;87.46;100688.56;1712669;83;21068;-69
2021/10/31 03:07:40;;;;;;;48.87;26.42;;;;;;;2.87;87.48;100689.92;1711564;83;21520;-69
2021/10/31 03:10:11;;;;;;;48.02;28.62;;;;;;;2.87;87.43;100683.95;1711316;83;21283;-70
2021/10/31 03:12:37;;;;;;;48.15;27.55;;;;;;;2.86;87.42;100680.95;1710481;83;21040;-69
2021/10/31 03:15:06;;;;;;;48.35;27.93;;;;;;;2.87;87.45;100678.51;1708253;83;21032;-69
2021/10/31 03:17:33;;;;;;;51.68;28.57;;;;;;;2.89;87.40;100684.55;1696260;83;21618;-69
2021/10/31 03:19:59;;;;;;;41.60;27.82;;;;;;;2.87;87.25;100679.88;1710025;83;21522;-69
2021/10/31 03:22:25;;;;;;;46.63;27.70;;;;;;;2.87;87.34;100675.78;1688217;83;21498;-68
2021/10/31 03:24:55;;;;;;;46.50;27.98;;;;;;;2.90;87.30;100674.49;1709317;82;21407;-69
2021/10/31 03:27:21;;;;;;;46.63;26.90;;;;;;;2.90;87.27;100675.30;1691259;84;21532;-69
2021/10/31 03:29:50;;;;;;;47.75;26.68;;;;;;;2.90;87.12;100674.49;1732109;82;21041;-69
2021/10/31 03:32:17;;;;;;;46.08;27.37;;;;;;;2.88;86.98;100682.06;1697179;83;21736;-69
2021/10/31 03:34:47;;;;;;;41.95;27.32;;;;;;;2.84;86.76;100680.36;1716318;82;21058;-68
2021/10/31 03:37:14;;;;;;;43.40;27.48;;;;;;;2.82;86.83;100677.56;1656035;84;21138;-68
2021/10/31 03:39:43;;;;;;;47.35;27.90;;;;;;;2.80;86.74;100683.25;1714264;82;21481;-69
2021/10/31 03:42:09;;;;;;;42.50;27.07;;;;;;;2.75;86.61;100680.41;1727460;81;21004;-69
2021/10/31 03:44:40;;;;;;;44.65;27.52;;;;;;;2.74;86.67;100681.49;1715289;83;21215;-70
2021/10/31 03:47:07;;;;;;;42.98;26.27;;;;;;;2.68;86.48;100676.46;1693583;82;21012;-69
2021/10/31 03:49:35;;;;;;;45.78;25.23;;;;;;;2.59;86.44;100676.02;1731786;81;21083;-71
2021/10/31 03:52:03;;;;;;;43.40;26.05;;;;;;;2.56;86.59;100669.67;1697057;83;21044;-68
2021/10/31 03:54:32;;;;;;;41.92;26.50;;;;;;;2.55;86.62;100672.11;1739911;81;21551;-69
2021/10/31 03:57:01;;;;;;;43.70;27.10;;;;;;;2.53;86.58;100664.70;1734474;81;21124;-70
2021/10/31 03:59:30;;;;;;;41.90;24.98;;;;;;;2.51;86.61;100672.27;1721991;82;22369;-70
2021/10/31 04:01:56;;;;;;;42.38;26.40;;;;;;;2.48;86.57;100672.75;1709377;83;21063;-70
2021/10/31 04:04:25;;;;;;;41.85;27.35;;;;;;;2.43;86.58;100665.31;1722510;82;21036;-69
2021/10/31 04:06:51;;;;;;;47.83;27.15;;;;;;;2.39;86.67;100658.70;1692226;83;21115;-71
2021/10/31 04:09:19;;;;;;;47.10;27.82;;;;;;;2.37;86.70;100662.99;1697792;84;22030;-70
2021/10/31 04:11:52;;;;;;;49.58;28.23;;;;;;;2.35;86.78;100661.06;1712586;83;21079;-69
2021/10/31 04:14:19;;;;;;;39.33;25.15;;;;;;;2.35;86.84;100661.59;1715117;83;21083;-71
2021/10/31 04:16:46;;;;;;;45.48;27.70;;;;;;;2.36;86.95;100659.16;1704995;81;21064;-70
2021/10/31 04:19:13;;;;;;;44.08;26.70;;;;;;;2.35;86.93;100654.78;1670088;83;21047;-69
2021/10/31 04:21:41;;;;;;;43.02;25.80;;;;;;;2.33;86.93;100654.19;1711048;83;21858;-69
2021/10/31 04:24:07;;;;;;;47.05;27.60;;;;;;;2.31;87.04;100654.42;1689359;83;20995;-69
2021/10/31 04:26:36;;;;;;;49.77;27.67;;;;;;;2.30;87.08;100650.06;1698909;83;21012;-69
2021/10/31 04:29:06;;;;;;;42.30;26.00;;;;;;;2.30;87.04;100646.79;1713499;83;21048;-69
2021/10/31 04:31:33;;;;;;;51.65;27.90;;;;;;;2.33;87.06;100649.59;1693556;83;21023;-69
2021/10/31 04:34:02;;;;;;;44.38;26.68;;;;;;;2.35;87.04;100639.30;1711881;83;21509;-70
2021/10/31 04:36:33;;;;;;;49.73;26.82;;;;;;;2.35;86.92;100640.66;1713441;82;21009;-70
2021/10/31 04:39:00;;;;;;;41.80;26.35;;;;;;;2.29;86.86;100642.42;1698761;83;21492;-70
2021/10/31 04:41:29;;;;;;;36.77;25.97;;;;;;;2.28;86.94;100642.66;1669033;84;21079;-69
2021/10/31 04:43:55;;;;;;;45.55;27.67;;;;;;;2.27;87.00;100642.38;1706739;83;21118;-70
2021/10/31 04:46:22;;;;;;;42.88;26.73;;;;;;;2.25;86.97;100645.31;1696586;83;21051;-70
2021/10/31 04:48:48;;;;;;;46.63;27.75;;;;;;;2.24;86.98;100643.67;1713675;82;21004;-68
2021/10/31 04:51:14;;;;;;;41.92;27.00;;;;;;;2.26;86.96;100648.87;1712302;83;21337;-69
2021/10/31 04:53:43;;;;;;;47.78;26.87;;;;;;;2.24;87.03;100638.23;1712475;83;21005;-70
2021/10/31 04:56:10;;;;;;;45.38;26.57;;;;;;;2.28;87.07;100650.30;1713250;82;21008;-69
2021/10/31 04:58:36;;;;;;;45.65;27.35;;;;;;;2.33;87.17;100652.31;1714823;83;21123;-70
2021/10/31 05:01:04;;;;;;;42.53;26.55;;;;;;;2.39;87.23;100648.62;1692507;83;21547;-70
2021/10/31 05:03:31;;;;;;;48.05;27.05;;;;;;;2.42;87.12;100646.78;1694295;83;21075;-69
2021/10/31 05:05:59;;;;;;;45.95;26.93;;;;;;;2.45;86.95;100651.47;1716858;81;22214;-69
2021/10/31 05:08:26;;;;;;;55.92;31.57;;;;;;;2.45;86.92;100654.19;1706121;83;21080;-69
2021/10/31 05:10:56;;;;;;;46.00;28.30;;;;;;;2.42;86.89;100647.34;1719733;82;22270;-68
2021/10/31 05:13:23;;;;;;;53.45;30.27;;;;;;;2.45;86.92;100655.55;1718326;82;21774;-69
2021/10/31 05:15:49;;;;;;;45.33;28.00;;;;;;;2.45;86.88;100648.74;1702006;83;21086;-69
2021/10/31 05:18:22;;;;;;;44.95;27.00;;;;;;;2.48;87.00;100650.98;1704077;82;21133;-70
2021/10/31 05:20:51;;;;;;;42.75;26.93;;;;;;;2.53;87.09;100651.94;1731115;81;20988;-70
2021/10/31 05:23:18;;;;;;;44.55;27.17;;;;;;;2.59;87.12;100649.33;1716321;82;21170;-68
2021/10/31 05:25:45;;;;;;;46.77;26.85;;;;;;;2.63;87.13;100654.57;1732739;81;21005;-68
2021/10/31 05:28:13;;;;;;;42.17;27.30;;;;;;;2.66;87.15;100641.31;1735319;81;21067;-70
2021/10/31 05:30:41;;;;;;;45.92;29.07;;;;;;;2.72;87.29;100642.79;1731308;81;21074;-69
2021/10/31 05:33:07;;;;;;;44.13;27.98;;;;;;;2.80;87.42;100647.86;1729732;81;21469;-68
2021/10/31 05:35:33;;;;;;;45.17;27.75;;;;;;;2.86;87.33;100648.27;1727399;82;21025;-70
2021/10/31 05:38:02;;;;;;;44.98;27.42;;;;;;;2.89;87.21;100655.13;1707521;83;21078;-70
2021/10/31 05:40:31;;;;;;;46.02;27.85;;;;;;;2.95;87.33;100656.88;1711044;82;21087;-69
2021/10/31 05:42:58;;;;;;;45.48;25.32;;;;;;;3.03;87.37;100652.44;1738518;81;21142;-69
2021/10/31 05:45:25;;;;;;;40.28;26.05;;;;;;;3.13;87.47;100653.16;1712171;82;21015;-70
2021/10/31 05:47:54;;;;;;;45.88;26.82;;;;;;;3.22;87.38;100654.14;1728763;81;20984;-69
2021/10/31 05:50:22;;;;;;;56.13;29.55;;;;;;;3.28;87.32;100654.00;1706933;82;21019;-68
2021/10/31 05:52:48;;;;;;;51.70;28.12;;;;;;;3.37;87.38;100654.44;1730432;81;20997;-70
2021/10/31 05:55:16;;;;;;;47.08;29.57;;;;;;;3.44;87.24;100654.28;1725121;82;22718;-70
2021/10/31 05:57:45;;;;;;;42.62;26.70;;;;;;;3.51;87.21;100656.30;1729593;81;21524;-69
2021/10/31 06:00:13;;;;;;;45.98;27.85;;;;;;;3.63;87.21;100658.97;1669631;84;21216;-69
2021/10/31 06:02:43;;;;;;;43.23;25.30;;;;;;;3.74;86.89;100668.17;1724812;81;20976;-69
2021/10/31 06:05:11;;;;;;;43.35;26.45;;;;;;;3.84;86.65;100670.80;1725352;82;21629;-68
2021/10/31 06:07:41;;;;;;;36.40;24.40;;;;;;;3.94;86.59;100668.21;1717124;81;21079;-69
2021/10/31 06:10:10;;;;;;;44.23;26.55;;;;;;;4.01;86.23;100669.41;1708819;82;21547;-69
2021/10/31 06:12:39;;;;;;;47.78;27.07;;;;;;;4.06;86.21;100670.86;1702884;83;21534;-70
2021/10/31 06:15:06;;;;;;;46.90;27.02;;;;;;;4.16;86.12;100668.02;1692184;83;21028;-69
2021/10/31 06:17:34;;;;;;;46.48;27.58;;;;;;;4.21;85.69;100669.47;1719449;82;21839;-69
2021/10/31 06:20:03;;;;;;;52.45;30.02;;;;;;;4.21;85.38;100670.30;1702747;83;21059;-69
2021/10/31 06:22:29;;;;;;;44.27;28.00;;;;;;;4.23;85.30;100670.86;1697956;84;21016;-69
2021/10/31 06:24:57;;;;;;;42.83;28.60;;;;;;;4.31;85.33;100664.70;1697148;84;21169;-70
2021/10/31 06:27:27;;;;;;;43.02;25.75;;;;;;;4.37;85.12;100672.72;1697541;84;21083;-68
2021/10/31 06:29:54;;;;;;;40.80;26.75;;;;;;;4.43;84.96;100668.70;1707350;83;21038;-67
2021/10/31 06:32:20;;;;;;;47.67;28.73;;;;;;;4.47;85.00;100678.05;1712297;83;21674;-67
2021/10/31 06:34:48;;;;;;;50.80;27.55;;;;;;;4.55;84.99;100676.78;1714441;82;21055;-66
2021/10/31 06:37:15;;;;;;;39.40;26.00;;;;;;;4.65;85.00;100677.46;1707394;83;21618;-67
2021/10/31 06:39:42;;;;;;;44.38;26.82;;;;;;;4.76;84.93;100677.87;1697556;84;21073;-68
2021/10/31 06:42:10;;;;;;;41.20;23.90;;;;;;;4.84;84.58;100677.47;1702511;83;21039;-69
2021/10/31 06:44:37;;;;;;;36.68;22.70;;;;;;;4.93;84.42;100677.02;1714205;83;21075;-70
2021/10/31 06:47:08;;;;;;;37.28;24.30;;;;;;;5.05;84.35;100672.80;1709295;82;21456;-69
2021/10/31 06:49:38;;;;;;;35.95;23.47;;;;;;;5.16;84.18;100676.47;1712267;83;21556;-68
2021/10/31 06:52:06;;;;;;;37.17;22.65;;;;;;;5.26;83.89;100678.48;1711501;83;21009;-69
2021/10/31 06:54:34;;;;;;;39.42;24.50;;;;;;;5.34;83.67;100676.12;1721084;83;21070;-70
2021/10/31 06:57:00;;;;;;;42.83;25.23;;;;;;;5.45;83.54;100685.28;1727353;83;21136;-70
2021/10/31 06:59:27;;;;;;;35.33;22.77;;;;;;;5.55;83.27;100679.09;1722895;83;21040;-70
2021/10/31 07:01:54;;;;;;;39.78;26.00;;;;;;;5.56;82.71;100680.73;1711366;83;21615;-70
2021/10/31 07:04:20;;;;;;;48.00;24.30;;;;;;;5.56;82.54;100672.52;1710758;83;21075;-70
2021/10/31 07:06:49;;;;;;;40.08;25.00;;;;;;;5.55;82.08;100676.35;1710154;83;21056;-70
2021/10/31 07:09:17;;;;;;;35.40;22.22;;;;;;;5.62;82.36;100669.84;1691844;83;21055;-70
2021/10/31 07:11:45;;;;;;;34.38;21.95;;;;;;;5.75;82.37;100668.05;1708691;82;21005;-71
2021/10/31 07:14:12;;;;;;;36.35;22.15;;;;;;;5.84;81.85;100667.04;1714406;83;21936;-70
2021/10/31 07:16:42;;;;;;;44.50;24.30;;;;;;;5.90;81.67;100670.66;1712399;82;20993;-72
2021/10/31 07:19:09;;;;;;;46.15;25.48;;;;;;;5.94;81.54;100669.03;1710904;83;21087;-70
2021/10/31 07:21:37;;;;;;;35.28;22.27;;;;;;;6.03;81.62;100668.02;1709878;83;21031;-70
2021/10/31 07:24:06;;;;;;;37.05;23.45;;;;;;;6.14;81.56;100665.66;1757696;81;21031;-70
2021/10/31 07:26:34;;;;;;;36.63;21.73;;;;;;;6.28;81.41;100663.84;1712995;83;21113;-71
2021/10/31 07:29:05;;;;;;;38.30;22.87;;;;;;;6.43;81.18;100675.47;1677762;84;21051;-71
2021/10/31 07:31:35;;;;;;;35.23;22.77;;;;;;;6.57;80.90;100665.69;1724032;83;21009;-71
2021/10/31 07:34:05;;;;;;;42.88;23.42;;;;;;;6.73;80.47;100664.94;1681243;83;21062;-71
2021/10/31 07:36:32;;;;;;;38.08;22.13;;;;;;;6.87;80.14;100666.66;1714465;81;21087;-71
2021/10/31 07:38:59;;;;;;;29.98;20.52;;;;;;;6.95;79.84;100664.77;1701836;83;21139;-71
2021/10/31 07:41:26;;;;;;;34.35;21.42;;;;;;;6.99;79.46;100660.42;1723390;83;21068;-70
2021/10/31 07:44:00;;;;;;;32.90;20.68;;;;;;;7.03;79.22;100664.26;1717740;83;21078;-70
2021/10/31 07:46:34;;;;;;;32.30;20.57;;;;;;;7.14;79.23;100666.50;1697022;83;21606;-71
2021/10/31 07:49:02;;;;;;;30.25;20.30;;;;;;;7.26;78.78;100665.44;1707288;83;21075;-71
2021/10/31 07:51:31;;;;;;;41.35;21.90;;;;;;;7.31;78.32;100662.70;1723689;83;21160;-70
2021/10/31 07:53:58;;;;;;;37.10;20.70;;;;;;;7.37;78.21;100667.67;1664820;83;21015;-70
2021/10/31 07:56:27;;;;;;;36.53;22.60;;;;;;;7.45;78.09;100668.51;1683555;84;21537;-71
2021/10/31 07:58:55;;;;;;;38.92;22.17;;;;;;;7.57;77.81;100670.17;1697381;82;21096;-71
2021/10/31 08:01:24;;;;;;;39.42;21.93;;;;;;;7.65;77.50;100677.32;1692457;82;21065;-70
2021/10/31 08:03:54;;;;;;;33.63;21.77;;;;;;;7.77;77.58;100673.48;1731215;81;21097;-70
2021/10/31 08:06:21;;;;;;;33.45;20.12;;;;;;;7.89;77.24;100669.10;1698155;83;21052;-70
2021/10/31 08:08:48;;;;;;;32.10;20.12;;;;;;;8.02;77.00;100667.72;1728887;81;21383;-70
2021/10/31 08:11:14;;;;;;;33.42;19.10;;;;;;;8.11;76.43;100667.46;1701966;82;21618;-70
2021/10/31 08:13:41;;;;;;;33.55;20.48;;;;;;;8.17;76.42;100668.30;1742499;81;21261;-71
2021/10/31 08:16:09;;;;;;;30.37;19.17;;;;;;;8.27;76.31;100668.25;1717386;83;22033;-71
2021/10/31 08:18:35;;;;;;;34.43;20.10;;;;;;;8.36;75.90;100672.64;1737193;81;21099;-71
2021/10/31 08:21:05;;;;;;;32.28;20.25;;;;;;;8.49;75.77;100658.07;1724352;81;21064;-70
2021/10/31 08:23:34;;;;;;;32.98;19.65;;;;;;;8.66;75.41;100675.65;1698472;83;21041;-70
2021/10/31 08:26:03;;;;;;;29.48;18.50;;;;;;;8.83;75.28;100668.45;1720400;83;21056;-70
2021/10/31 08:28:34;;;;;;;30.23;16.37;;;;;;;8.99;74.77;100667.03;1727539;82;21036;-70
2021/10/31 08:31:00;;;;;;;24.52;16.70;;;;;;;9.14;74.22;100663.38;1695188;82;21066;-70
2021/10/31 08:33:32;;;;;;;24.65;15.98;;;;;;;9.30;73.78;100665.48;1702775;82;21052;-71
2021/10/31 08:35:58;;;;;;;26.20;16.25;;;;;;;9.42;72.99;100661.02;1721687;82;21066;-70
2021/10/31 08:38:24;;;;;;;31.20;18.45;;;;;;;9.51;72.48;100659.88;1688896;83;21150;-71
2021/10/31 08:40:55;;;;;;;27.93;16.90;;;;;;;9.60;71.83;100659.52;1714945;82;22103;-70
2021/10/31 08:43:22;;;;;;;23.73;14.85;;;;;;;9.69;71.83;100665.81;1706762;82;21000;-70
2021/10/31 08:45:54;;;;;;;20.00;13.98;;;;;;;9.78;71.37;100657.75;1712334;82;32863;-71
2021/10/31 08:48:23;;;;;;;25.02;14.28;;;;;;;9.85;71.22;100654.13;1720376;82;20997;-71
2021/10/31 08:50:50;;;;;;;25.43;15.90;;;;;;;9.96;70.93;100652.12;1719734;82;21417;-71
2021/10/31 08:53:17;;;;;;;22.35;14.13;;;;;;;10.10;70.36;100655.01;1716673;82;21141;-70
2021/10/31 08:55:45;;;;;;;25.12;14.45;;;;;;;10.17;69.95;100655.50;1716470;82;21662;-70
2021/10/31 08:58:15;;;;;;;22.10;13.93;;;;;;;10.21;69.30;100655.75;1718816;82;21062;-70
2021/10/31 09:00:45;;;;;;;24.52;14.07;;;;;;;10.29;69.03;100657.87;1721833;82;21016;-72
2021/10/31 09:03:11;;;;;;;24.35;16.02;;;;;;;10.35;68.52;100650.39;1722546;82;21075;-70
2021/10/31 09:05:41;;;;;;;27.25;13.43;;;;;;;10.43;68.61;100653.05;1686092;83;21040;-70
2021/10/31 09:08:09;;;;;;;20.43;13.50;;;;;;;10.54;67.54;100652.43;1723924;82;21560;-71
2021/10/31 09:10:38;;;;;;;24.10;12.70;;;;;;;10.51;67.43;100644.17;1699144;82;21035;-71
2021/10/31 09:13:09;;;;;;;18.95;13.10;;;;;;;10.53;66.82;100643.87;1715361;82;21063;-70
2021/10/31 09:15:37;;;;;;;25.97;13.48;;;;;;;10.53;67.01;100643.33;1712701;83;21094;-71
2021/10/31 09:18:07;;;;;;;24.60;13.93;;;;;;;10.54;66.21;100636.70;1715376;83;21591;-72
2021/10/31 09:20:34;;;;;;;21.73;12.82;;;;;;;10.58;66.50;100633.63;1707993;83;21052;-71
2021/10/31 09:23:06;;;;;;;20.43;12.88;;;;;;;10.70;66.42;100631.84;1713010;83;21080;-70
2021/10/31 09:25:33;;;;;;;23.98;12.35;;;;;;;10.86;66.22;100623.94;1709855;83;21044;-67
2021/10/31 09:28:01;;;;;;;24.65;12.68;;;;;;;11.00;65.85;100622.67;1710634;83;21107;-72
2021/10/31 09:30:31;;;;;;;30.72;14.25;;;;;;;11.10;65.10;100625.30;1711140;82;21303;-70
2021/10/31 09:33:01;;;;;;;19.40;12.95;;;;;;;11.20;64.79;100618.80;1709090;83;21098;-70
2021/10/31 09:35:32;;;;;;;32.53;12.50;;;;;;;11.29;64.45;100624.48;1709604;82;21525;-70
2021/10/31 09:38:02;;;;;;;23.00;13.32;;;;;;;11.35;64.04;100626.59;1688876;83;21028;-69
2021/10/31 09:40:27;;;;;;;23.80;11.03;;;;;;;11.37;63.72;100609.18;1708892;83;21615;-65
2021/10/31 09:42:58;;;;;;;17.82;10.93;;;;;;;11.47;62.93;100616.48;1709856;83;22162;-69
2021/10/31 09:45:27;;;;;;;19.90;10.28;;;;;;;11.56;62.64;100621.59;1708664;83;21047;-70
2021/10/31 09:47:57;;;;;;;20.43;10.03;;;;;;;11.66;61.75;100622.82;1688974;83;21094;-71
2021/10/31 09:50:28;;;;;;;22.82;9.20;;;;;;;11.69;61.24;100613.93;1697461;83;21448;-70
2021/10/31 09:52:55;;;;;;;26.00;8.73;;;;;;;11.72;60.71;100614.45;1689651;83;21515;-71
2021/10/31 09:55:26;;;;;;;21.75;9.78;;;;;;;11.74;60.60;100610.81;1708370;83;21027;-70
2021/10/31 09:57:55;;;;;;;16.37;9.40;;;;;;;11.78;60.09;100609.92;1700500;83;21618;-70
2021/10/31 10:00:42;;;;;;;23.52;8.73;;;;;;;11.83;60.05;100604.88;1712785;83;21662;-72
2021/10/31 10:03:35;;;;;;;16.97;9.45;;;;;;;11.84;59.76;100612.61;1727582;81;21111;-70
2021/10/31 10:06:31;;;;;;;18.35;9.00;;;;;;;11.84;59.39;100610.64;1702152;81;20992;-71
2021/10/31 10:09:10;;;;;;;19.17;8.50;;;;;;;11.87;59.33;100601.78;1707850;83;21154;-70
2021/10/31 10:11:43;;;;;;;24.15;9.33;;;;;;;11.93;59.14;100603.32;1713851;83;21020;-71
2021/10/31 10:14:24;;;;;;;26.23;9.70;;;;;;;11.96;58.10;100606.61;1713042;83;20997;-71
2021/10/31 10:17:02;;;;;;;17.73;9.20;;;;;;;11.91;58.07;100597.27;1716715;83;21030;-69
2021/10/31 10:19:54;;;;;;;24.18;9.88;;;;;;;11.91;57.99;100588.98;1715209;83;21024;-69
2021/10/31 10:22:23;;;;;;;16.55;10.55;;;;;;;11.98;58.19;100587.22;1713599;81;21062;-70
2021/10/31 10:25:04;;;;;;;17.90;9.48;;;;;;;12.08;57.82;100580.68;1714562;83;21020;-69
2021/10/31 10:27:35;;;;;;;16.73;9.70;;;;;;;12.14;57.76;100579.51;1701368;83;21023;-70
2021/10/31 10:30:00;;;;;;;16.90;8.85;;;;;;;12.31;57.94;100573.94;1693752;83;21083;-70
2021/10/31 10:32:27;;;;;;;17.55;8.93;;;;;;;12.41;57.31;100566.84;1673518;81;21075;-68
2021/10/31 10:34:57;;;;;;;21.50;8.90;;;;;;;12.46;57.19;100566.46;1704697;82;21162;-68
2021/10/31 10:37:31;;;;;;;18.48;8.93;;;;;;;12.54;56.96;100565.73;1697819;83;21556;-70
2021/10/31 10:40:11;;;;;;;22.82;10.40;;;;;;;12.59;56.52;100557.92;1711133;83;21024;-69
2021/10/31 10:42:51;;;;;;;20.30;9.53;;;;;;;12.66;56.42;100548.63;1709372;82;22132;-70
2021/10/31 10:45:23;;;;;;;19.55;9.88;;;;;;;12.76;55.79;100544.27;1711274;83;21028;-69
2021/10/31 10:47:55;;;;;;;23.52;10.45;;;;;;;12.86;56.29;100543.22;1705008;83;21103;-70
2021/10/31 10:50:46;;;;;;;14.98;9.53;;;;;;;12.99;55.49;100540.73;1709773;83;21563;-71
2021/10/31 10:53:37;;;;;;;17.70;9.85;;;;;;;13.02;54.80;100537.34;1720950;81;21012;-70
2021/10/31 10:56:15;;;;;;;23.92;10.08;;;;;;;13.08;54.85;100537.49;1708906;83;21482;-70
2021/10/31 10:58:51;;;;;;;16.90;9.05;;;;;;;13.18;54.53;100532.28;1706191;84;21596;-69
2021/10/31 11:01:18;;;;;;;17.50;9.65;;;;;;;13.22;54.55;100523.59;1716215;82;21203;-69
2021/10/31 11:03:47;;;;;;;18.23;9.70;;;;;;;13.24;54.04;100523.27;1743009;81;21047;-71
2021/10/31 11:06:14;;;;;;;17.52;8.35;;;;;;;13.26;53.97;100527.93;1734525;81;21056;-70
2021/10/31 11:08:45;;;;;;;18.48;9.05;;;;;;;13.31;53.91;100525.05;1702633;81;21012;-71
2021/10/31 11:11:15;;;;;;;17.85;7.67;;;;;;;13.29;53.56;100530.66;1740012;81;21083;-70
2021/10/31 11:13:53;;;;;;;14.10;8.10;;;;;;;13.29;53.74;100524.53;1741785;81;21044;-70
2021/10/31 11:16:23;;;;;;;13.13;8.03;;;;;;;13.36;53.39;100522.70;1705779;81;21023;-70
2021/10/31 11:18:51;;;;;;;17.90;9.05;;;;;;;13.33;53.42;100522.78;1755679;80;21122;-69
2021/10/31 11:21:18;;;;;;;18.37;9.88;;;;;;;13.30;53.89;100527.57;1750796;80;22275;-71
2021/10/31 11:23:46;;;;;;;19.00;10.25;;;;;;;13.34;53.31;100518.08;1757340;80;21028;-70
2021/10/31 11:26:16;;;;;;;18.05;9.83;;;;;;;13.35;53.26;100519.14;1746181;80;21617;-69
2021/10/31 11:28:43;;;;;;;17.15;10.23;;;;;;;13.38;53.17;100517.69;1750550;80;21535;-71
2021/10/31 11:31:11;;;;;;;23.95;10.78;;;;;;;13.47;53.16;100520.52;1747188;80;21040;-70
2021/10/31 11:33:37;;;;;;;19.23;10.32;;;;;;;13.58;53.47;100516.97;1731053;81;21079;-71